• Join FlightAware (Why Join?)
  • Login
  • US Flag 
12:24PM EDT


 

Airport Tracker/Info


-or-


 

Live Flight TrackerFlight Track Log ✈ TRS534 ✈ 04-May-2012 ✈ KATL - KLGA

Flight Track Log - Related Links

Times and Time Zones

All times are in EDT time to prevent confusion due to time zone crossing. See the TRS534 flight status page for this flight to view local times or setup timezone preferences in your user account.

Time Position Orientation Groundspeed Altitude Reporting Facility
EDT Latitude Longitude Course Direction KTS MPH feet Rate Location/Type
10:43AM 33.6167 -84.4833 239° Southwest 177 204 2,100  Level Atlanta TRACON
10:44AM 33.5833 -84.5500 215° Southwest 272 313 4,300 2,760 Climbing Atlanta TRACON
10:45AM 33.5425 -84.5847 155° Southeast 315 362 7,200 3,120 Climbing Atlanta Center
10:46AM 33.4614 -84.5394 93° East 309 356 10,600 2,820 Climbing Atlanta Center
10:47AM 33.4556 -84.4197 88° East 368 423 13,400 2,400 Climbing Atlanta Center
10:48AM 33.4600 -84.2953 51° Northeast 389 448 15,500 2,460 Climbing Atlanta Center
10:49AM 33.5250 -84.1983 44° Northeast 363 418 18,400 2,940 Climbing Atlanta Center
10:50AM 33.6022 -84.1086 46° Northeast 363 418 21,400 2,280 Climbing Atlanta Center
10:51AM 33.6814 -84.0114 66° East 382 440 23,000 1,440 Climbing Atlanta Center
10:52AM 33.7294 -83.8839 68° East 399 459 24,300 1,620 Climbing Atlanta Center
10:53AM 33.7689 -83.7664 68° East 417 480 26,300 1,920 Climbing Atlanta Center
10:54AM 33.8144 -83.6289 57° Northeast 430 495 28,200 1,740 Climbing Atlanta Center
10:55AM 33.8828 -83.5033 51° Northeast 440 506 29,800 1,440 Climbing Atlanta Center
10:56AM 33.9617 -83.3850 52° Northeast 445 512 31,200 1,500 Climbing Atlanta Center
10:57AM 34.0403 -83.2642 59° Northeast 456 525 32,800 1,620 Climbing Atlanta Center
10:58AM 34.1061 -83.1331 58° Northeast 456 525 34,500 1,380 Climbing Atlanta Center
10:59AM 34.1739 -83.0019 58° Northeast 461 531 35,600 1,080 Climbing Atlanta Center
11:00AM 34.2417 -82.8703 58° Northeast 451 519 36,700 1,260 Climbing Atlanta Center
11:01AM 34.3153 -82.7283 59° Northeast 451 519 38,200 1,140 Climbing Atlanta Center
11:02AM 34.3786 -82.5992 59° Northeast 451 519 39,000 360 Climbing Atlanta Center
11:03AM 34.4436 -82.4694 59° Northeast 451 519 39,000  Level Atlanta Center
11:04AM 34.5067 -82.3397 58° Northeast 451 519 39,000  Level Atlanta Center
11:05AM 34.5736 -82.2072 60° Northeast 451 519 39,000  Level Atlanta Center
11:06AM 34.6364 -82.0772 59° Northeast 451 519 39,000  Level Atlanta Center
11:07AM 34.7011 -81.9469 57° Northeast 451 519 39,000  Level Atlanta Center
11:08AM 34.7656 -81.8239 59° Northeast 437 503 39,000  Level Atlanta Center
11:09AM 34.8300 -81.6906 59° Northeast 444 511 39,000  Level Atlanta Center
11:10AM 34.8861 -81.5750 61° Northeast 452 520 39,000  Level Atlanta Center
11:11AM 34.9500 -81.4364 60° Northeast 452 520 39,000  Level Atlanta Center
11:12AM 35.0119 -81.3050 59° Northeast 452 520 39,000  Level Atlanta Center
11:13AM 35.0778 -81.1733 60° Northeast 452 520 39,000  Level Atlanta Center
11:14AM 35.1431 -81.0339 60° Northeast 452 520 39,000  Level Atlanta Center
11:15AM 35.2086 -80.8969 60° Northeast 452 520 39,000  Level Atlanta Center
11:16AM 35.2719 -80.7622 59° Northeast 457 526 39,000  Level Atlanta Center
11:17AM 35.3392 -80.6272 61° Northeast 457 526 39,000  Level Atlanta Center
11:18AM 35.4000 -80.4922 60° Northeast 451 519 39,000  Level Atlanta Center
11:20AM 35.5397 -80.1944 59° Northeast 453 521 39,000  Level Washington Center
11:21AM 35.5986 -80.0725 60° Northeast 453 521 39,000  Level Washington Center
11:22AM 35.6597 -79.9406 60° Northeast 448 516 39,000  Level Washington Center
11:23AM 35.7250 -79.8033 61° Northeast 454 522 39,000  Level Washington Center
11:24AM 35.7953 -79.6483 54° Northeast 463 533 39,000 -120 Level Washington Center
11:25AM 35.8636 -79.5339 52° Northeast 463 533 38,800 -540 Descending Washington Center
11:26AM 35.9472 -79.3997 52° Northeast 455 524 38,000 -420 Descending Washington Center
11:27AM 36.0264 -79.2725 51° Northeast 455 524 38,000  Level Washington Center
11:28AM 36.1053 -79.1500 53° Northeast 455 524 38,000  Level Washington Center
11:29AM 36.1819 -79.0250 52° Northeast 449 517 38,000  Level Washington Center
11:30AM 36.2561 -78.9069 53° Northeast 449 517 38,000  Level Washington Center
11:31AM 36.3328 -78.7814 52° Northeast 449 517 38,000  Level Washington Center
11:32AM 36.3981 -78.6758 53° Northeast 444 511 38,000  Level Washington Center
11:33AM 36.4742 -78.5494 49° Northeast 450 518 38,000  Level Washington Center
11:34AM 36.5564 -78.4336 42° Northeast 444 511 38,000  Level Washington Center
11:35AM 36.6483 -78.3308 44° Northeast 431 496 38,000  Level Washington Center
11:36AM 36.7428 -78.2175 41° Northeast 426 490 38,000  Level Washington Center
11:37AM 36.8367 -78.1169 45° Northeast 431 496 38,000  Level Washington Center
11:38AM 36.9225 -78.0106 43° Northeast 431 496 38,000  Level Washington Center
11:39AM 37.0142 -77.9042 41° Northeast 431 496 38,000  Level Washington Center
11:40AM 37.1058 -77.8028 43° Northeast 431 496 38,000  Level Washington Center
11:41AM 37.1975 -77.6961 42° Northeast 436 502 38,000  Level Washington Center
11:42AM 37.2889 -77.5914 43° Northeast 436 502 38,000  Level Washington Center
11:43AM 37.3783 -77.4867 42° Northeast 436 502 38,000  Level Washington Center
11:44AM 37.4675 -77.3842 44° Northeast 436 502 38,000  Level Washington Center
11:45AM 37.5567 -77.2764 43° Northeast 436 502 38,000  Level Washington Center
11:46AM 37.6456 -77.1708 43° Northeast 436 502 38,000  Level Washington Center
11:47AM 37.7344 -77.0675 44° Northeast 431 496 38,000  Level Washington Center
11:48AM 37.8214 -76.9614 43° Northeast 431 496 38,000  Level Washington Center
11:49AM 37.9081 -76.8578 44° Northeast 431 496 38,000 -180 Level Washington Center
11:50AM 37.9944 -76.7536 43° Northeast 431 496 37,700 -660 Descending Washington Center
11:51AM 38.0831 -76.6469 43° Northeast 431 496 36,700 -960 Descending Washington Center
11:52AM 38.1717 -76.5400 43° Northeast 436 502 35,800 -960 Descending Washington Center
11:53AM 38.2661 -76.4275 38° Northeast 441 507 34,800 -900 Descending Washington Center
11:54AM 38.3544 -76.3383 36° Northeast 447 514 34,000 -960 Descending Washington Center
11:55AM 38.4592 -76.2414 36° Northeast 452 520 33,000 -1,020 Descending Washington Center
11:56AM 38.5764 -76.1308 34° Northeast 458 527 32,000 -960 Descending Washington Center
11:57AM 38.6706 -76.0489 36° Northeast 458 527 31,100 -960 Descending Washington Center
11:58AM 38.7753 -75.9511 36° Northeast 458 527 30,100 -960 Descending Washington Center
11:59AM 38.8817 -75.8531 36° Northeast 458 527 29,200 -1,020 Descending Washington Center
12:00PM 38.9883 -75.7519 36° Northeast 463 533 28,200 -1,020 Descending Washington Center
12:01PM 39.0947 -75.6506 37° Northeast 463 533 27,200 -1,020 Descending Washington Center
12:02PM 39.1989 -75.5486 35° Northeast 468 539 26,200 -1,020 Descending Washington Center
12:03PM 39.3050 -75.4522 34° Northeast 468 539 25,200 -1,080 Descending Washington Center
12:04PM 39.4092 -75.3606 35° Northeast 463 533 24,100 -1,080 Descending Washington Center
12:05PM 39.5111 -75.2686 35° Northeast 457 526 23,100 -1,740 Descending Washington Center
12:06PM 39.6108 -75.1767 35° Northeast 444 511 20,700 -2,580 Descending Washington Center
12:07PM 39.7144 -75.0817 33° Northeast 429 494 17,900 -2,640 Descending Washington Center
12:08PM 39.7975 -75.0108 41° Northeast 408 470 15,600 -1,860 Descending Washington Center
12:11PM 39.9833 -74.8000 44° Northeast 344 396 11,800 -1,440 Descending New York TRACON
12:12PM 40.0500 -74.7167 52° Northeast 318 366 10,800 -1,020 Descending New York TRACON
12:13PM 40.1000 -74.6333 44° Northeast 299 344 9,800 -1,320 Descending New York TRACON
12:14PM 40.1667 -74.5500 46° Northeast 300 345 8,200 -900 Descending New York TRACON
12:15PM 40.2167 -74.4833 44° Northeast 297 342 8,100 -60 Descending New York TRACON
12:16PM 40.2833 -74.4000 52° Northeast 299 344 8,100 -540 Level New York TRACON
12:17PM 40.3333 -74.3167 37° Northeast 299 344 7,100 -540 Descending New York TRACON
12:18PM 40.4000 -74.2500 45° Northeast 290 334 7,100  Level New York TRACON
12:19PM 40.4500 -74.1833 37° Northeast 229 264 7,100 -300 Level New York TRACON
12:20PM 40.5000 -74.1333 27° Northeast 211 243 6,500 -660 Descending New York TRACON
12:21PM 40.5500 -74.1000 49° Northeast 207 238 5,800 -720 Descending New York TRACON
12:22PM 40.5833 -74.0500 27° Northeast 204 235 5,100 -720 Descending New York TRACON
12:23PM 40.6333 -74.0167 37° Northeast 197 227 4,400 -600 Descending New York TRACON
12:24PM 40.6833 -73.9667 66° East 193 222 4,000 -240 Descending New York TRACON
12:25PM 40.7000 -73.9167 57° Northeast 205 236 4,000  Level New York TRACON
12:26PM 40.7333 -73.8500 57° Northeast 207 238 4,000  Level New York TRACON
12:27PM 40.7667 -73.7833 57° Northeast 209 241 4,000  Level New York TRACON
12:28PM 40.8000 -73.7167 37° Northeast 200 230 4,000  Level New York TRACON
12:29PM 40.8333 -73.6833 37° Northeast 196 226 4,000  Level New York TRACON